sensor_id;sensor_type;location;lat;lon;timestamp;temperature;humidity
67817;DHT22;54614;47.576;7.524;2023-03-24T00:02:26;24.70;50.90
67817;DHT22;54614;47.576;7.524;2023-03-24T00:04:53;24.70;50.90
67817;DHT22;54614;47.576;7.524;2023-03-24T00:07:23;24.70;50.80
67817;DHT22;54614;47.576;7.524;2023-03-24T00:09:50;24.70;50.80
67817;DHT22;54614;47.576;7.524;2023-03-24T00:12:16;24.60;50.80
67817;DHT22;54614;47.576;7.524;2023-03-24T00:14:45;24.70;50.90
67817;DHT22;54614;47.576;7.524;2023-03-24T00:17:11;24.70;50.80
67817;DHT22;54614;47.576;7.524;2023-03-24T00:19:39;24.70;50.80
67817;DHT22;54614;47.576;7.524;2023-03-24T00:22:06;24.60;50.80
67817;DHT22;54614;47.576;7.524;2023-03-24T00:24:34;24.60;50.80
67817;DHT22;54614;47.576;7.524;2023-03-24T00:27:00;24.70;50.80
67817;DHT22;54614;47.576;7.524;2023-03-24T00:29:27;24.60;50.70
67817;DHT22;54614;47.576;7.524;2023-03-24T00:31:54;24.60;50.80
67817;DHT22;54614;47.576;7.524;2023-03-24T00:34:20;24.60;50.70
67817;DHT22;54614;47.576;7.524;2023-03-24T00:36:48;24.60;50.70
67817;DHT22;54614;47.576;7.524;2023-03-24T00:39:16;24.70;50.80
67817;DHT22;54614;47.576;7.524;2023-03-24T00:41:45;24.70;50.90
67817;DHT22;54614;47.576;7.524;2023-03-24T00:44:13;24.60;50.80
67817;DHT22;54614;47.576;7.524;2023-03-24T00:46:48;24.60;50.70
67817;DHT22;54614;47.576;7.524;2023-03-24T00:49:25;24.60;50.80
67817;DHT22;54614;47.576;7.524;2023-03-24T00:52:18;24.60;50.90
67817;DHT22;54614;47.576;7.524;2023-03-24T00:54:48;24.60;50.80
67817;DHT22;54614;47.576;7.524;2023-03-24T00:57:17;24.60;50.90
67817;DHT22;54614;47.576;7.524;2023-03-24T00:59:48;24.60;50.90
67817;DHT22;54614;47.576;7.524;2023-03-24T01:02:19;24.60;50.80
67817;DHT22;54614;47.576;7.524;2023-03-24T01:04:53;24.60;50.80
67817;DHT22;54614;47.576;7.524;2023-03-24T01:07:22;24.60;50.80
67817;DHT22;54614;47.576;7.524;2023-03-24T01:09:50;24.60;50.90
67817;DHT22;54614;47.576;7.524;2023-03-24T01:12:35;24.60;50.90
67817;DHT22;54614;47.576;7.524;2023-03-24T01:15:04;24.60;50.80
67817;DHT22;54614;47.576;7.524;2023-03-24T01:17:35;24.60;50.90
67817;DHT22;54614;47.576;7.524;2023-03-24T01:20:01;24.60;50.90
67817;DHT22;54614;47.576;7.524;2023-03-24T01:22:37;24.60;50.80
67817;DHT22;54614;47.576;7.524;2023-03-24T01:25:09;24.60;50.90
67817;DHT22;54614;47.576;7.524;2023-03-24T01:27:42;24.60;50.80
67817;DHT22;54614;47.576;7.524;2023-03-24T01:30:10;24.60;50.80
67817;DHT22;54614;47.576;7.524;2023-03-24T01:32:38;24.60;50.80
67817;DHT22;54614;47.576;7.524;2023-03-24T01:35:04;24.60;50.80
67817;DHT22;54614;47.576;7.524;2023-03-24T01:37:30;24.60;50.70
67817;DHT22;54614;47.576;7.524;2023-03-24T01:39:56;24.60;50.70
67817;DHT22;54614;47.576;7.524;2023-03-24T01:42:24;24.60;50.70
67817;DHT22;54614;47.576;7.524;2023-03-24T01:45:42;24.60;50.70
67817;DHT22;54614;47.576;7.524;2023-03-24T01:48:13;24.60;50.70
67817;DHT22;54614;47.576;7.524;2023-03-24T01:51:08;24.60;50.60
67817;DHT22;54614;47.576;7.524;2023-03-24T01:54:25;24.60;50.60
67817;DHT22;54614;47.576;7.524;2023-03-24T01:56:45;24.60;50.60
67817;DHT22;54614;47.576;7.524;2023-03-24T01:59:18;24.60;50.70
67817;DHT22;54614;47.576;7.524;2023-03-24T02:01:47;24.60;50.60
67817;DHT22;54614;47.576;7.524;2023-03-24T02:04:14;24.50;50.50
67817;DHT22;54614;47.576;7.524;2023-03-24T02:06:43;24.60;50.60
67817;DHT22;54614;47.576;7.524;2023-03-24T02:09:11;24.50;50.60
67817;DHT22;54614;47.576;7.524;2023-03-24T02:11:40;24.50;50.70
67817;DHT22;54614;47.576;7.524;2023-03-24T02:14:08;24.50;50.70
67817;DHT22;54614;47.576;7.524;2023-03-24T02:28:55;24.50;50.70
67817;DHT22;54614;47.576;7.524;2023-03-24T02:40:39;24.50;50.70
67817;DHT22;54614;47.576;7.524;2023-03-24T02:46:35;24.50;50.60
67817;DHT22;54614;47.576;7.524;2023-03-24T02:49:12;24.50;50.70
67817;DHT22;54614;47.576;7.524;2023-03-24T02:57:28;24.50;50.60
67817;DHT22;54614;47.576;7.524;2023-03-24T03:03:01;24.50;50.60
67817;DHT22;54614;47.576;7.524;2023-03-24T03:08:06;24.50;50.50
67817;DHT22;54614;47.576;7.524;2023-03-24T03:10:40;24.50;50.60
67817;DHT22;54614;47.576;7.524;2023-03-24T03:13:35;24.50;50.60
67817;DHT22;54614;47.576;7.524;2023-03-24T03:16:54;24.50;50.60
67817;DHT22;54614;47.576;7.524;2023-03-24T03:19:13;24.50;50.60
67817;DHT22;54614;47.576;7.524;2023-03-24T03:21:45;24.50;50.50
67817;DHT22;54614;47.576;7.524;2023-03-24T03:24:16;24.50;50.50
67817;DHT22;54614;47.576;7.524;2023-03-24T03:26:59;24.50;50.50
67817;DHT22;54614;47.576;7.524;2023-03-24T03:29:32;24.50;50.40
67817;DHT22;54614;47.576;7.524;2023-03-24T03:32:05;24.50;50.50
67817;DHT22;54614;47.576;7.524;2023-03-24T03:34:49;24.50;50.40
67817;DHT22;54614;47.576;7.524;2023-03-24T03:40:50;24.50;51.00
67817;DHT22;54614;47.576;7.524;2023-03-24T03:43:21;24.50;50.40
67817;DHT22;54614;47.576;7.524;2023-03-24T03:45:48;24.50;50.30
67817;DHT22;54614;47.576;7.524;2023-03-24T03:48:15;24.50;50.40
67817;DHT22;54614;47.576;7.524;2023-03-24T03:50:42;24.50;50.40
67817;DHT22;54614;47.576;7.524;2023-03-24T03:53:11;24.50;50.40
67817;DHT22;54614;47.576;7.524;2023-03-24T03:55:40;24.50;50.40
67817;DHT22;54614;47.576;7.524;2023-03-24T03:58:07;24.30;50.40
67817;DHT22;54614;47.576;7.524;2023-03-24T04:00:33;24.50;50.50
67817;DHT22;54614;47.576;7.524;2023-03-24T04:06:00;24.50;50.50
67817;DHT22;54614;47.576;7.524;2023-03-24T04:19:45;24.50;50.60
67817;DHT22;54614;47.576;7.524;2023-03-24T04:31:20;24.50;50.80
67817;DHT22;54614;47.576;7.524;2023-03-24T04:33:59;24.50;50.70
67817;DHT22;54614;47.576;7.524;2023-03-24T04:36:37;24.50;50.80
67817;DHT22;54614;47.576;7.524;2023-03-24T04:39:12;24.50;50.80
67817;DHT22;54614;47.576;7.524;2023-03-24T04:41:43;24.50;50.80
67817;DHT22;54614;47.576;7.524;2023-03-24T04:44:12;24.50;50.80
67817;DHT22;54614;47.576;7.524;2023-03-24T04:46:42;24.50;50.80
67817;DHT22;54614;47.576;7.524;2023-03-24T04:49:09;24.50;51.10
67817;DHT22;54614;47.576;7.524;2023-03-24T04:51:35;24.40;51.10
67817;DHT22;54614;47.576;7.524;2023-03-24T04:54:01;24.40;51.10
67817;DHT22;54614;47.576;7.524;2023-03-24T04:58:55;24.40;51.00
67817;DHT22;54614;47.576;7.524;2023-03-24T05:01:21;24.50;51.00
67817;DHT22;54614;47.576;7.524;2023-03-24T05:03:48;24.50;51.00
67817;DHT22;54614;47.576;7.524;2023-03-24T05:06:14;24.40;51.10
67817;DHT22;54614;47.576;7.524;2023-03-24T05:08:41;24.50;51.20
67817;DHT22;54614;47.576;7.524;2023-03-24T05:11:07;24.40;51.30
67817;DHT22;54614;47.576;7.524;2023-03-24T05:13:33;24.50;51.30
67817;DHT22;54614;47.576;7.524;2023-03-24T05:15:59;24.50;51.30
67817;DHT22;54614;47.576;7.524;2023-03-24T05:18:25;24.50;51.20
67817;DHT22;54614;47.576;7.524;2023-03-24T05:20:50;24.50;51.30
67817;DHT22;54614;47.576;7.524;2023-03-24T05:23:18;24.50;51.30
67817;DHT22;54614;47.576;7.524;2023-03-24T05:25:45;24.50;51.30
67817;DHT22;54614;47.576;7.524;2023-03-24T05:28:12;24.50;51.40
67817;DHT22;54614;47.576;7.524;2023-03-24T05:30:38;24.50;51.40
67817;DHT22;54614;47.576;7.524;2023-03-24T05:33:04;24.50;51.50
67817;DHT22;54614;47.576;7.524;2023-03-24T05:35:30;24.50;51.50
67817;DHT22;54614;47.576;7.524;2023-03-24T05:37:55;24.50;51.50
67817;DHT22;54614;47.576;7.524;2023-03-24T05:40:21;24.50;51.50
67817;DHT22;54614;47.576;7.524;2023-03-24T05:42:48;24.50;51.50
67817;DHT22;54614;47.576;7.524;2023-03-24T05:45:16;24.50;51.60
67817;DHT22;54614;47.576;7.524;2023-03-24T05:47:42;24.50;51.60
67817;DHT22;54614;47.576;7.524;2023-03-24T05:50:08;24.50;52.20
67817;DHT22;54614;47.576;7.524;2023-03-24T05:52:34;24.50;51.60
67817;DHT22;54614;47.576;7.524;2023-03-24T05:55:00;24.50;51.60
67817;DHT22;54614;47.576;7.524;2023-03-24T05:57:27;24.50;51.60
67817;DHT22;54614;47.576;7.524;2023-03-24T05:59:55;24.50;51.70
67817;DHT22;54614;47.576;7.524;2023-03-24T06:02:22;24.50;51.70
67817;DHT22;54614;47.576;7.524;2023-03-24T06:04:49;24.50;51.70
67817;DHT22;54614;47.576;7.524;2023-03-24T06:07:16;24.50;51.60
67817;DHT22;54614;47.576;7.524;2023-03-24T06:09:42;24.50;51.60
67817;DHT22;54614;47.576;7.524;2023-03-24T06:12:11;24.50;51.60
67817;DHT22;54614;47.576;7.524;2023-03-24T06:14:38;24.50;51.80
67817;DHT22;54614;47.576;7.524;2023-03-24T06:17:06;24.50;51.80
67817;DHT22;54614;47.576;7.524;2023-03-24T06:19:33;24.50;51.80
67817;DHT22;54614;47.576;7.524;2023-03-24T06:21:59;24.50;51.90
67817;DHT22;54614;47.576;7.524;2023-03-24T06:24:28;24.50;51.90
67817;DHT22;54614;47.576;7.524;2023-03-24T06:26:54;24.50;51.90
67817;DHT22;54614;47.576;7.524;2023-03-24T06:29:27;24.60;51.90
67817;DHT22;54614;47.576;7.524;2023-03-24T06:31:55;24.50;52.30
67817;DHT22;54614;47.576;7.524;2023-03-24T06:34:21;24.40;52.80
67817;DHT22;54614;47.576;7.524;2023-03-24T06:36:49;24.40;55.40
67817;DHT22;54614;47.576;7.524;2023-03-24T06:39:16;24.40;54.90
67817;DHT22;54614;47.576;7.524;2023-03-24T06:41:42;24.30;55.40
67817;DHT22;54614;47.576;7.524;2023-03-24T06:44:08;24.40;54.20
67817;DHT22;54614;47.576;7.524;2023-03-24T06:46:33;24.30;54.50
67817;DHT22;54614;47.576;7.524;2023-03-24T06:48:59;24.40;53.70
67817;DHT22;54614;47.576;7.524;2023-03-24T06:51:25;24.40;53.50
67817;DHT22;54614;47.576;7.524;2023-03-24T06:53:51;24.40;52.70
67817;DHT22;54614;47.576;7.524;2023-03-24T06:56:17;24.50;52.40
67817;DHT22;54614;47.576;7.524;2023-03-24T06:58:45;24.50;52.50
67817;DHT22;54614;47.576;7.524;2023-03-24T07:01:12;24.50;52.30
67817;DHT22;54614;47.576;7.524;2023-03-24T07:03:39;24.50;52.20
67817;DHT22;54614;47.576;7.524;2023-03-24T07:06:07;24.50;52.10
67817;DHT22;54614;47.576;7.524;2023-03-24T07:08:34;24.50;52.10
67817;DHT22;54614;47.576;7.524;2023-03-24T07:11:02;24.50;52.10
67817;DHT22;54614;47.576;7.524;2023-03-24T07:13:28;24.50;52.10
67817;DHT22;54614;47.576;7.524;2023-03-24T07:15:54;24.50;52.10
67817;DHT22;54614;47.576;7.524;2023-03-24T07:18:20;24.50;51.90
67817;DHT22;54614;47.576;7.524;2023-03-24T07:20:46;24.50;51.80
67817;DHT22;54614;47.576;7.524;2023-03-24T07:23:12;24.50;51.90
67817;DHT22;54614;47.576;7.524;2023-03-24T07:25:39;24.50;51.80
67817;DHT22;54614;47.576;7.524;2023-03-24T07:28:05;24.50;51.90
67817;DHT22;54614;47.576;7.524;2023-03-24T07:30:33;24.50;51.90
67817;DHT22;54614;47.576;7.524;2023-03-24T07:33:01;24.50;51.90
67817;DHT22;54614;47.576;7.524;2023-03-24T07:35:28;24.50;51.80
67817;DHT22;54614;47.576;7.524;2023-03-24T07:38:00;24.50;51.80
67817;DHT22;54614;47.576;7.524;2023-03-24T07:40:27;24.50;51.80
67817;DHT22;54614;47.576;7.524;2023-03-24T07:42:54;24.50;51.80
67817;DHT22;54614;47.576;7.524;2023-03-24T07:45:24;24.50;51.80
67817;DHT22;54614;47.576;7.524;2023-03-24T07:47:51;24.50;51.80
67817;DHT22;54614;47.576;7.524;2023-03-24T07:50:16;24.50;51.80
67817;DHT22;54614;47.576;7.524;2023-03-24T07:52:46;24.50;51.70
67817;DHT22;54614;47.576;7.524;2023-03-24T07:55:13;24.50;51.70
67817;DHT22;54614;47.576;7.524;2023-03-24T07:57:41;24.50;51.70
67817;DHT22;54614;47.576;7.524;2023-03-24T08:00:10;24.50;51.80
67817;DHT22;54614;47.576;7.524;2023-03-24T08:02:41;24.50;51.70
67817;DHT22;54614;47.576;7.524;2023-03-24T08:05:08;24.50;51.70
67817;DHT22;54614;47.576;7.524;2023-03-24T08:07:35;24.50;51.70
67817;DHT22;54614;47.576;7.524;2023-03-24T08:10:01;24.50;51.90
67817;DHT22;54614;47.576;7.524;2023-03-24T08:12:28;24.50;51.70
67817;DHT22;54614;47.576;7.524;2023-03-24T08:14:54;24.50;51.70
67817;DHT22;54614;47.576;7.524;2023-03-24T08:17:20;24.50;51.70
67817;DHT22;54614;47.576;7.524;2023-03-24T08:19:46;24.50;51.70
67817;DHT22;54614;47.576;7.524;2023-03-24T08:22:13;24.50;51.70
67817;DHT22;54614;47.576;7.524;2023-03-24T08:24:38;24.50;51.70
67817;DHT22;54614;47.576;7.524;2023-03-24T08:27:04;24.50;51.60
67817;DHT22;54614;47.576;7.524;2023-03-24T08:29:32;24.50;51.70
67817;DHT22;54614;47.576;7.524;2023-03-24T08:32:01;24.50;51.70
67817;DHT22;54614;47.576;7.524;2023-03-24T08:34:28;24.50;51.80
67817;DHT22;54614;47.576;7.524;2023-03-24T08:36:54;24.50;51.70
67817;DHT22;54614;47.576;7.524;2023-03-24T08:39:20;24.50;51.70
67817;DHT22;54614;47.576;7.524;2023-03-24T08:41:46;24.50;51.70
67817;DHT22;54614;47.576;7.524;2023-03-24T08:44:15;24.50;51.70
67817;DHT22;54614;47.576;7.524;2023-03-24T08:46:41;24.50;51.70
67817;DHT22;54614;47.576;7.524;2023-03-24T08:49:08;24.50;51.70
67817;DHT22;54614;47.576;7.524;2023-03-24T08:51:34;24.50;51.60
67817;DHT22;54614;47.576;7.524;2023-03-24T08:54:00;24.50;51.60
67817;DHT22;54614;47.576;7.524;2023-03-24T08:56:28;24.50;51.70
67817;DHT22;54614;47.576;7.524;2023-03-24T08:58:54;24.50;51.70
67817;DHT22;54614;47.576;7.524;2023-03-24T09:01:22;24.50;51.60
67817;DHT22;54614;47.576;7.524;2023-03-24T09:03:49;24.50;51.60
67817;DHT22;54614;47.576;7.524;2023-03-24T09:06:15;24.50;51.60
67817;DHT22;54614;47.576;7.524;2023-03-24T09:08:41;24.50;51.60
67817;DHT22;54614;47.576;7.524;2023-03-24T09:11:17;24.50;51.60
67817;DHT22;54614;47.576;7.524;2023-03-24T09:13:44;24.50;51.60
67817;DHT22;54614;47.576;7.524;2023-03-24T09:16:10;24.50;51.60
67817;DHT22;54614;47.576;7.524;2023-03-24T09:18:36;24.50;51.60
67817;DHT22;54614;47.576;7.524;2023-03-24T09:21:02;24.50;51.60
67817;DHT22;54614;47.576;7.524;2023-03-24T09:23:29;24.50;51.60
67817;DHT22;54614;47.576;7.524;2023-03-24T09:25:56;24.50;51.60
67817;DHT22;54614;47.576;7.524;2023-03-24T09:28:22;24.50;51.60
67817;DHT22;54614;47.576;7.524;2023-03-24T09:30:48;24.50;51.60
67817;DHT22;54614;47.576;7.524;2023-03-24T09:33:15;24.50;51.60
67817;DHT22;54614;47.576;7.524;2023-03-24T09:35:41;24.50;51.60
67817;DHT22;54614;47.576;7.524;2023-03-24T09:38:07;24.50;51.60
67817;DHT22;54614;47.576;7.524;2023-03-24T09:40:38;24.50;51.60
67817;DHT22;54614;47.576;7.524;2023-03-24T09:43:41;24.50;51.60
67817;DHT22;54614;47.576;7.524;2023-03-24T09:46:18;24.50;51.50
67817;DHT22;54614;47.576;7.524;2023-03-24T09:48:56;24.50;51.50
67817;DHT22;54614;47.576;7.524;2023-03-24T09:56:38;24.50;52.10
67817;DHT22;54614;47.576;7.524;2023-03-24T09:59:36;24.50;51.40
67817;DHT22;54614;47.576;7.524;2023-03-24T10:02:19;24.50;51.40
67817;DHT22;54614;47.576;7.524;2023-03-24T10:04:47;24.50;51.30
67817;DHT22;54614;47.576;7.524;2023-03-24T10:07:31;24.50;51.30
67817;DHT22;54614;47.576;7.524;2023-03-24T10:10:15;24.50;51.20
67817;DHT22;54614;47.576;7.524;2023-03-24T10:12:49;24.50;51.20
67817;DHT22;54614;47.576;7.524;2023-03-24T10:15:41;24.50;51.20
67817;DHT22;54614;47.576;7.524;2023-03-24T10:21:39;24.50;51.50
67817;DHT22;54614;47.576;7.524;2023-03-24T10:31:53;24.50;51.50
67817;DHT22;54614;47.576;7.524;2023-03-24T10:34:28;24.50;51.50
67817;DHT22;54614;47.576;7.524;2023-03-24T10:37:00;24.50;51.50
67817;DHT22;54614;47.576;7.524;2023-03-24T10:39:29;24.40;51.40
67817;DHT22;54614;47.576;7.524;2023-03-24T10:41:57;24.40;51.40
67817;DHT22;54614;47.576;7.524;2023-03-24T10:44:24;24.40;51.40
67817;DHT22;54614;47.576;7.524;2023-03-24T10:46:54;24.50;51.50
67817;DHT22;54614;47.576;7.524;2023-03-24T10:49:23;24.40;51.40
67817;DHT22;54614;47.576;7.524;2023-03-24T10:51:51;24.40;51.50
67817;DHT22;54614;47.576;7.524;2023-03-24T10:54:28;24.40;51.40
67817;DHT22;54614;47.576;7.524;2023-03-24T11:02:24;24.50;51.50
67817;DHT22;54614;47.576;7.524;2023-03-24T11:05:14;24.50;51.50
67817;DHT22;54614;47.576;7.524;2023-03-24T11:07:46;24.40;51.40
67817;DHT22;54614;47.576;7.524;2023-03-24T11:10:23;24.50;51.50
67817;DHT22;54614;47.576;7.524;2023-03-24T11:13:00;24.40;51.40
67817;DHT22;54614;47.576;7.524;2023-03-24T11:15:29;24.50;51.50
67817;DHT22;54614;47.576;7.524;2023-03-24T11:20:43;24.40;51.50
67817;DHT22;54614;47.576;7.524;2023-03-24T11:29:00;24.40;51.40
67817;DHT22;54614;47.576;7.524;2023-03-24T11:31:32;24.40;51.40
67817;DHT22;54614;47.576;7.524;2023-03-24T11:34:17;24.40;51.40
67817;DHT22;54614;47.576;7.524;2023-03-24T11:37:02;24.40;51.40
67817;DHT22;54614;47.576;7.524;2023-03-24T11:39:33;24.40;51.40
67817;DHT22;54614;47.576;7.524;2023-03-24T11:42:14;24.40;51.40
67817;DHT22;54614;47.576;7.524;2023-03-24T11:44:47;24.40;51.40
67817;DHT22;54614;47.576;7.524;2023-03-24T11:47:31;24.40;51.40
67817;DHT22;54614;47.576;7.524;2023-03-24T11:52:43;24.50;51.50
67817;DHT22;54614;47.576;7.524;2023-03-24T11:55:30;24.40;51.40
67817;DHT22;54614;47.576;7.524;2023-03-24T11:58:03;24.40;51.40
67817;DHT22;54614;47.576;7.524;2023-03-24T12:00:51;24.40;51.40
67817;DHT22;54614;47.576;7.524;2023-03-24T12:18:07;24.40;51.40
67817;DHT22;54614;47.576;7.524;2023-03-24T12:26:28;24.50;51.50
67817;DHT22;54614;47.576;7.524;2023-03-24T12:32:00;24.40;51.40
67817;DHT22;54614;47.576;7.524;2023-03-24T12:37:32;24.40;51.40
67817;DHT22;54614;47.576;7.524;2023-03-24T12:54:23;24.40;51.40
67817;DHT22;54614;47.576;7.524;2023-03-24T12:57:08;24.40;51.30
67817;DHT22;54614;47.576;7.524;2023-03-24T13:03:15;24.40;51.40
67817;DHT22;54614;47.576;7.524;2023-03-24T13:05:53;24.40;51.50
67817;DHT22;54614;47.576;7.524;2023-03-24T13:08:24;24.40;51.40
67817;DHT22;54614;47.576;7.524;2023-03-24T13:11:04;24.40;51.30
67817;DHT22;54614;47.576;7.524;2023-03-24T13:13:40;24.40;51.30
67817;DHT22;54614;47.576;7.524;2023-03-24T13:16:29;24.40;51.40
67817;DHT22;54614;47.576;7.524;2023-03-24T13:18:59;24.40;51.30
67817;DHT22;54614;47.576;7.524;2023-03-24T13:21:27;24.40;51.40
67817;DHT22;54614;47.576;7.524;2023-03-24T13:24:01;24.40;51.30
67817;DHT22;54614;47.576;7.524;2023-03-24T13:26:47;24.40;51.90
67817;DHT22;54614;47.576;7.524;2023-03-24T13:32:44;24.40;51.30
67817;DHT22;54614;47.576;7.524;2023-03-24T13:35:44;24.40;51.30
67817;DHT22;54614;47.576;7.524;2023-03-24T13:38:32;24.40;51.30
67817;DHT22;54614;47.576;7.524;2023-03-24T13:41:11;24.40;51.30
67817;DHT22;54614;47.576;7.524;2023-03-24T13:43:49;24.40;51.40
67817;DHT22;54614;47.576;7.524;2023-03-24T13:46:23;24.40;51.40
67817;DHT22;54614;47.576;7.524;2023-03-24T13:48:52;24.40;51.40
67817;DHT22;54614;47.576;7.524;2023-03-24T13:51:34;24.40;51.30
67817;DHT22;54614;47.576;7.524;2023-03-24T13:54:19;24.40;51.20
67817;DHT22;54614;47.576;7.524;2023-03-24T13:57:18;24.40;51.20
67817;DHT22;54614;47.576;7.524;2023-03-24T14:03:14;24.40;51.30
67817;DHT22;54614;47.576;7.524;2023-03-24T14:06:00;24.40;51.30
67817;DHT22;54614;47.576;7.524;2023-03-24T14:08:54;24.40;51.30
67817;DHT22;54614;47.576;7.524;2023-03-24T14:14:25;24.40;51.30
67817;DHT22;54614;47.576;7.524;2023-03-24T14:19:43;24.40;51.30
67817;DHT22;54614;47.576;7.524;2023-03-24T14:22:34;24.30;51.20
67817;DHT22;54614;47.576;7.524;2023-03-24T14:27:53;24.40;51.30
67817;DHT22;54614;47.576;7.524;2023-03-24T14:30:32;24.40;51.30
67817;DHT22;54614;47.576;7.524;2023-03-24T14:33:03;24.40;51.30
67817;DHT22;54614;47.576;7.524;2023-03-24T14:38:21;24.40;51.30
67817;DHT22;54614;47.576;7.524;2023-03-24T14:40:59;24.40;51.40
67817;DHT22;54614;47.576;7.524;2023-03-24T14:46:05;24.40;51.20
67817;DHT22;54614;47.576;7.524;2023-03-24T14:49:28;24.40;51.20
67817;DHT22;54614;47.576;7.524;2023-03-24T14:57:23;24.30;51.20
67817;DHT22;54614;47.576;7.524;2023-03-24T15:08:13;24.40;51.30
67817;DHT22;54614;47.576;7.524;2023-03-24T15:13:47;24.30;51.10
67817;DHT22;54614;47.576;7.524;2023-03-24T15:21:31;24.40;51.20
67817;DHT22;54614;47.576;7.524;2023-03-24T15:26:48;24.30;51.20
67817;DHT22;54614;47.576;7.524;2023-03-24T15:29:34;24.30;51.20
67817;DHT22;54614;47.576;7.524;2023-03-24T15:32:17;24.30;51.20
67817;DHT22;54614;47.576;7.524;2023-03-24T15:35:13;24.30;51.20
67817;DHT22;54614;47.576;7.524;2023-03-24T15:37:42;24.30;51.20
67817;DHT22;54614;47.576;7.524;2023-03-24T15:40:41;24.30;51.00
67817;DHT22;54614;47.576;7.524;2023-03-24T15:43:21;24.30;50.90
67817;DHT22;54614;47.576;7.524;2023-03-24T15:45:51;24.30;51.00
67817;DHT22;54614;47.576;7.524;2023-03-24T15:48:22;24.30;51.10
67817;DHT22;54614;47.576;7.524;2023-03-24T15:51:07;24.30;51.10
67817;DHT22;54614;47.576;7.524;2023-03-24T15:53:39;24.30;51.10
67817;DHT22;54614;47.576;7.524;2023-03-24T16:01:26;24.30;51.10
67817;DHT22;54614;47.576;7.524;2023-03-24T16:04:03;24.30;51.20
67817;DHT22;54614;47.576;7.524;2023-03-24T16:06:34;24.30;51.00
67817;DHT22;54614;47.576;7.524;2023-03-24T16:09:04;24.30;50.70
67817;DHT22;54614;47.576;7.524;2023-03-24T16:11:33;24.30;50.60
67817;DHT22;54614;47.576;7.524;2023-03-24T16:14:00;24.30;50.80
67817;DHT22;54614;47.576;7.524;2023-03-24T16:16:36;24.30;50.80
67817;DHT22;54614;47.576;7.524;2023-03-24T16:19:03;24.30;50.80
67817;DHT22;54614;47.576;7.524;2023-03-24T16:21:29;24.40;50.90
67817;DHT22;54614;47.576;7.524;2023-03-24T16:23:56;24.30;50.90
67817;DHT22;54614;47.576;7.524;2023-03-24T16:26:26;24.40;51.00
67817;DHT22;54614;47.576;7.524;2023-03-24T16:28:54;24.30;51.00
67817;DHT22;54614;47.576;7.524;2023-03-24T16:31:27;24.30;51.20
67817;DHT22;54614;47.576;7.524;2023-03-24T16:34:00;24.40;51.20
67817;DHT22;54614;47.576;7.524;2023-03-24T16:36:26;24.40;51.10
67817;DHT22;54614;47.576;7.524;2023-03-24T16:38:54;24.40;51.40
67817;DHT22;54614;47.576;7.524;2023-03-24T16:41:21;24.40;51.20
67817;DHT22;54614;47.576;7.524;2023-03-24T16:43:47;24.40;51.20
67817;DHT22;54614;47.576;7.524;2023-03-24T16:46:20;24.40;51.20
67817;DHT22;54614;47.576;7.524;2023-03-24T16:48:55;24.40;51.20
67817;DHT22;54614;47.576;7.524;2023-03-24T16:51:21;24.40;51.20
67817;DHT22;54614;47.576;7.524;2023-03-24T16:53:47;24.40;51.20
67817;DHT22;54614;47.576;7.524;2023-03-24T16:56:15;24.40;51.20
67817;DHT22;54614;47.576;7.524;2023-03-24T16:58:43;24.40;51.20
67817;DHT22;54614;47.576;7.524;2023-03-24T17:01:33;24.40;51.00
67817;DHT22;54614;47.576;7.524;2023-03-24T17:04:02;24.40;50.70
67817;DHT22;54614;47.576;7.524;2023-03-24T17:06:35;24.40;50.80
67817;DHT22;54614;47.576;7.524;2023-03-24T17:09:04;24.40;50.90
67817;DHT22;54614;47.576;7.524;2023-03-24T17:11:34;24.40;51.00
67817;DHT22;54614;47.576;7.524;2023-03-24T17:14:03;24.40;51.10
67817;DHT22;54614;47.576;7.524;2023-03-24T17:16:32;24.40;51.10
67817;DHT22;54614;47.576;7.524;2023-03-24T17:19:02;24.40;51.10
67817;DHT22;54614;47.576;7.524;2023-03-24T17:21:29;24.40;51.20
67817;DHT22;54614;47.576;7.524;2023-03-24T17:23:56;24.40;51.20
67817;DHT22;54614;47.576;7.524;2023-03-24T17:26:22;24.40;51.10
67817;DHT22;54614;47.576;7.524;2023-03-24T17:28:48;24.40;51.00
67817;DHT22;54614;47.576;7.524;2023-03-24T17:31:15;24.30;50.70
67817;DHT22;54614;47.576;7.524;2023-03-24T17:33:41;24.30;50.60
67817;DHT22;54614;47.576;7.524;2023-03-24T17:36:14;24.40;50.80
67817;DHT22;54614;47.576;7.524;2023-03-24T17:38:41;24.30;50.30
67817;DHT22;54614;47.576;7.524;2023-03-24T17:41:08;24.30;50.30
67817;DHT22;54614;47.576;7.524;2023-03-24T17:43:35;24.30;50.30
67817;DHT22;54614;47.576;7.524;2023-03-24T17:46:01;24.30;50.40
67817;DHT22;54614;47.576;7.524;2023-03-24T17:48:28;24.30;50.20
67817;DHT22;54614;47.576;7.524;2023-03-24T17:50:54;24.30;50.20
67817;DHT22;54614;47.576;7.524;2023-03-24T17:53:21;24.30;50.30
67817;DHT22;54614;47.576;7.524;2023-03-24T17:55:57;24.30;51.20
67817;DHT22;54614;47.576;7.524;2023-03-24T17:58:26;24.20;51.10
67817;DHT22;54614;47.576;7.524;2023-03-24T18:00:52;24.20;51.20
67817;DHT22;54614;47.576;7.524;2023-03-24T18:03:18;24.30;51.10
67817;DHT22;54614;47.576;7.524;2023-03-24T18:05:44;24.20;51.10
67817;DHT22;54614;47.576;7.524;2023-03-24T18:08:10;24.20;51.20
67817;DHT22;54614;47.576;7.524;2023-03-24T18:10:38;24.20;51.10
67817;DHT22;54614;47.576;7.524;2023-03-24T18:13:05;24.20;51.10
67817;DHT22;54614;47.576;7.524;2023-03-24T18:15:33;24.20;51.10
67817;DHT22;54614;47.576;7.524;2023-03-24T18:17:59;24.20;51.00
67817;DHT22;54614;47.576;7.524;2023-03-24T18:20:25;24.20;51.00
67817;DHT22;54614;47.576;7.524;2023-03-24T18:22:51;24.20;51.00
67817;DHT22;54614;47.576;7.524;2023-03-24T18:25:17;24.30;51.00
67817;DHT22;54614;47.576;7.524;2023-03-24T18:27:44;24.20;50.70
67817;DHT22;54614;47.576;7.524;2023-03-24T18:30:11;24.20;50.80
67817;DHT22;54614;47.576;7.524;2023-03-24T18:32:38;24.20;50.80
67817;DHT22;54614;47.576;7.524;2023-03-24T18:35:10;24.20;50.80
67817;DHT22;54614;47.576;7.524;2023-03-24T18:37:40;24.20;51.50
67817;DHT22;54614;47.576;7.524;2023-03-24T18:40:07;23.90;52.80
67817;DHT22;54614;47.576;7.524;2023-03-24T18:42:35;24.00;51.80
67817;DHT22;54614;47.576;7.524;2023-03-24T18:45:01;24.10;51.40
67817;DHT22;54614;47.576;7.524;2023-03-24T18:47:27;24.30;51.20
67817;DHT22;54614;47.576;7.524;2023-03-24T18:49:53;24.30;51.10
67817;DHT22;54614;47.576;7.524;2023-03-24T18:52:18;24.30;51.00
67817;DHT22;54614;47.576;7.524;2023-03-24T18:54:44;24.40;50.90
67817;DHT22;54614;47.576;7.524;2023-03-24T18:57:10;24.40;50.80
67817;DHT22;54614;47.576;7.524;2023-03-24T18:59:37;24.40;51.50
67817;DHT22;54614;47.576;7.524;2023-03-24T19:02:03;24.40;51.30
67817;DHT22;54614;47.576;7.524;2023-03-24T19:04:29;24.40;51.10
67817;DHT22;54614;47.576;7.524;2023-03-24T19:06:55;24.40;51.50
67817;DHT22;54614;47.576;7.524;2023-03-24T19:09:21;24.40;51.30